createdAt,value
2022-08-10T00:03:20.583Z,21.80
2022-08-10T00:08:26.100Z,21.70
2022-08-10T00:13:31.846Z,21.70
2022-08-10T00:18:36.413Z,21.60
2022-08-10T00:23:40.225Z,21.60
2022-08-10T00:28:45.355Z,21.50
2022-08-10T00:33:49.045Z,21.50
2022-08-10T00:38:52.895Z,21.40
2022-08-10T00:43:58.314Z,21.40
2022-08-10T00:49:02.090Z,21.40
2022-08-10T00:54:06.687Z,21.30
2022-08-10T00:59:29.524Z,21.30
2022-08-10T01:04:39.851Z,21.20
2022-08-10T01:10:16.736Z,21.10
2022-08-10T01:15:29.641Z,21.10
2022-08-10T01:20:39.865Z,21.00
2022-08-10T01:26:11.475Z,21.00
2022-08-10T01:31:22.308Z,20.80
2022-08-10T01:36:31.883Z,20.90
2022-08-10T01:41:46.505Z,20.80
2022-08-10T01:46:57.451Z,20.80
2022-08-10T01:52:03.303Z,20.70
2022-08-10T01:57:09.940Z,20.70
2022-08-10T02:02:16.947Z,20.60
2022-08-10T02:07:24.717Z,20.60
2022-08-10T02:12:32.341Z,20.50
2022-08-10T02:18:00.250Z,20.50
2022-08-10T02:23:08.563Z,20.40
2022-08-10T02:28:30.312Z,20.40
2022-08-10T02:33:38.370Z,20.40
2022-08-10T02:38:58.899Z,20.30
2022-08-10T02:45:20.720Z,20.30
2022-08-10T02:49:39.825Z,20.30
2022-08-10T02:54:52.134Z,20.20
2022-08-10T02:59:58.802Z,20.20
2022-08-10T03:05:05.145Z,20.10
2022-08-10T03:10:13.734Z,20.10
2022-08-10T03:15:21.016Z,20.10
2022-08-10T03:20:36.908Z,20.10
2022-08-10T03:25:53.798Z,20.00
2022-08-10T03:31:00.112Z,19.90
2022-08-10T03:36:43.416Z,19.90
2022-08-10T03:41:35.967Z,19.90
2022-08-10T03:46:42.716Z,19.80
2022-08-10T03:51:49.360Z,19.80
2022-08-10T03:56:53.492Z,19.70
2022-08-10T04:02:43.628Z,19.70
2022-08-10T04:07:22.797Z,19.60
2022-08-10T04:12:26.613Z,19.60
2022-08-10T04:18:03.729Z,19.60
2022-08-10T04:22:58.479Z,19.50
2022-08-10T04:28:05.778Z,19.50
2022-08-10T04:33:12.104Z,19.50
2022-08-10T04:38:19.300Z,19.50
2022-08-10T04:43:23.024Z,19.40
2022-08-10T04:48:43.296Z,19.40
2022-08-10T04:54:06.028Z,19.40
2022-08-10T04:59:12.559Z,19.40
2022-08-10T05:04:34.892Z,19.30
2022-08-10T05:10:04.799Z,19.30
2022-08-10T05:15:07.897Z,19.30
2022-08-10T05:20:13.098Z,19.30
2022-08-10T05:25:19.988Z,19.30
2022-08-10T05:30:23.971Z,19.30
2022-08-10T05:35:29.129Z,19.30
2022-08-10T05:40:54.943Z,19.30
2022-08-10T05:46:17.682Z,19.20
2022-08-10T05:51:23.135Z,19.20
2022-08-10T05:56:56.380Z,19.30
2022-08-10T06:02:33.232Z,19.30
2022-08-10T06:07:21.879Z,19.30
2022-08-10T06:12:30.221Z,19.30
2022-08-10T06:17:34.775Z,19.30
2022-08-10T06:22:38.614Z,19.40
2022-08-10T06:27:44.838Z,19.40
2022-08-10T06:32:50.263Z,19.40
2022-08-10T06:37:56.838Z,19.50
2022-08-10T06:43:05.482Z,19.50
2022-08-10T06:48:13.243Z,19.60
2022-08-10T06:53:19.378Z,19.60
2022-08-10T06:58:27.476Z,19.70
2022-08-10T07:03:37.656Z,19.70
2022-08-10T07:08:43.836Z,19.80
2022-08-10T07:14:17.395Z,19.80
2022-08-10T07:19:14.856Z,19.90
2022-08-10T07:24:19.734Z,20.00
2022-08-10T07:29:53.821Z,20.10
2022-08-10T07:34:54.518Z,20.10
2022-08-10T07:40:03.982Z,20.20
2022-08-10T07:45:10.668Z,20.40
2022-08-10T07:50:18.028Z,20.40
2022-08-10T07:56:04.548Z,20.50
2022-08-10T08:00:49.302Z,20.60
2022-08-10T08:06:03.023Z,20.80
2022-08-10T08:11:25.589Z,20.90
2022-08-10T08:16:33.202Z,21.00
2022-08-10T08:24:06.968Z,21.10
2022-08-10T08:27:04.237Z,21.20
2022-08-10T08:32:11.550Z,21.40
2022-08-10T08:38:28.773Z,21.50
2022-08-10T08:43:14.326Z,21.70
2022-08-10T08:48:53.480Z,21.80
2022-08-10T08:54:09.449Z,22.00
2022-08-10T08:59:30.016Z,22.10
2022-08-10T09:04:49.699Z,22.30
2022-08-10T09:10:01.926Z,22.50
2022-08-10T09:15:10.001Z,22.70
2022-08-10T09:20:41.359Z,22.90
2022-08-10T09:25:52.366Z,23.20
2022-08-10T09:31:21.606Z,23.50
2022-08-10T09:36:38.032Z,23.80
2022-08-10T09:41:50.678Z,24.30
2022-08-10T09:47:17.132Z,24.80
2022-08-10T09:52:41.923Z,25.30
2022-08-10T09:57:57.412Z,25.70
2022-08-10T10:03:17.253Z,26.10
2022-08-10T10:08:32.310Z,26.50
2022-08-10T10:14:02.562Z,26.90
2022-08-10T10:19:21.298Z,27.10
2022-08-10T10:24:36.315Z,27.40
2022-08-10T10:29:58.317Z,27.60
2022-08-10T10:35:08.673Z,27.80
2022-08-10T10:40:16.903Z,28.10
2022-08-10T10:45:29.260Z,28.30
2022-08-10T10:50:42.345Z,28.50
2022-08-10T10:56:14.714Z,28.70
2022-08-10T11:01:36.196Z,28.80
2022-08-10T11:06:51.955Z,29.00
2022-08-10T11:12:03.072Z,29.10
2022-08-10T11:17:18.406Z,29.30
2022-08-10T11:22:31.168Z,29.40
2022-08-10T11:27:50.632Z,29.50
2022-08-10T11:33:08.492Z,29.70
2022-08-10T11:38:31.958Z,29.80
2022-08-10T11:43:50.062Z,29.90
2022-08-10T11:49:03.586Z,29.90
2022-08-10T11:54:11.459Z,30.00
2022-08-10T11:59:35.337Z,30.10
2022-08-10T12:04:42.990Z,30.10
2022-08-10T12:10:07.779Z,30.20
2022-08-10T12:15:20.614Z,30.30
2022-08-10T12:20:30.104Z,30.30
2022-08-10T12:25:55.566Z,30.40
2022-08-10T12:31:07.594Z,30.40
2022-08-10T12:36:21.998Z,30.40
2022-08-10T12:41:43.851Z,30.40
2022-08-10T12:46:58.581Z,30.50
2022-08-10T12:52:12.424Z,30.50
2022-08-10T12:57:18.312Z,30.50
2022-08-10T13:02:26.795Z,30.50
2022-08-10T13:08:25.260Z,30.50
2022-08-10T13:13:00.581Z,30.50
2022-08-10T13:18:18.106Z,30.50
2022-08-10T13:23:26.805Z,30.50
2022-08-10T13:28:43.309Z,30.50
2022-08-10T13:34:41.144Z,30.50
2022-08-10T13:39:22.010Z,30.40
2022-08-10T13:44:33.707Z,30.40
2022-08-10T13:49:49.642Z,30.40
2022-08-10T13:54:53.570Z,30.30
2022-08-10T14:00:37.665Z,30.30
2022-08-10T14:05:28.932Z,30.20
2022-08-10T14:11:08.568Z,30.20
2022-08-10T14:16:07.386Z,30.10
2022-08-10T14:21:13.035Z,30.00
2022-08-10T14:26:20.679Z,30.00
2022-08-10T14:31:30.973Z,30.00
2022-08-10T14:36:43.329Z,29.90
2022-08-10T14:42:01.201Z,29.80
2022-08-10T14:47:52.078Z,29.80
2022-08-10T14:52:43.986Z,29.70
2022-08-10T14:58:16.877Z,29.70
2022-08-10T15:04:02.033Z,29.60
2022-08-10T15:08:44.719Z,29.50
2022-08-10T15:14:12.471Z,29.40
2022-08-10T15:20:02.042Z,29.40
2022-08-10T15:25:04.038Z,29.30
2022-08-10T15:30:10.444Z,29.20
2022-08-10T15:35:31.933Z,29.10
2022-08-10T15:40:50.408Z,29.00
2022-08-10T15:46:04.224Z,28.90
2022-08-10T15:51:17.945Z,28.80
2022-08-10T15:56:31.322Z,28.80
2022-08-10T16:02:12.658Z,28.70
2022-08-10T16:07:06.984Z,28.70
2022-08-10T16:12:16.505Z,28.60
2022-08-10T16:17:23.478Z,28.60
2022-08-10T16:22:34.224Z,28.50
2022-08-10T16:27:43.094Z,28.40
2022-08-10T16:32:49.805Z,28.40
2022-08-10T16:37:59.892Z,28.30
2022-08-10T16:43:09.022Z,28.30
2022-08-10T16:48:16.624Z,28.20
2022-08-10T16:53:47.524Z,28.20
2022-08-10T16:58:57.575Z,28.10
2022-08-10T17:04:09.861Z,28.00
2022-08-10T17:09:19.125Z,28.00
2022-08-10T17:14:26.034Z,27.90
2022-08-10T17:19:35.978Z,27.90
2022-08-10T17:24:46.321Z,27.80
2022-08-10T17:30:03.699Z,27.80
2022-08-10T17:35:12.270Z,27.80
2022-08-10T17:40:19.877Z,27.70
2022-08-10T17:45:48.620Z,27.60
2022-08-10T17:50:53.688Z,27.60
2022-08-10T17:55:59.898Z,27.50
2022-08-10T18:01:40.507Z,27.50
2022-08-10T18:06:32.489Z,27.40
2022-08-10T18:11:42.131Z,27.40
2022-08-10T18:16:47.571Z,27.40
2022-08-10T18:21:52.090Z,27.30
2022-08-10T18:26:57.755Z,27.30
2022-08-10T18:32:04.853Z,27.30
2022-08-10T18:37:11.065Z,27.20
2022-08-10T18:42:19.502Z,27.20
2022-08-10T18:47:33.997Z,27.10
2022-08-10T18:52:41.048Z,27.10
2022-08-10T18:58:05.590Z,27.00
2022-08-10T19:03:53.635Z,26.90
2022-08-10T19:09:46.522Z,26.90
2022-08-10T19:14:53.508Z,26.80
2022-08-10T19:20:08.142Z,26.70
2022-08-10T19:26:17.166Z,26.70
2022-08-10T19:30:52.022Z,26.50
2022-08-10T19:36:08.976Z,26.50
2022-08-10T19:41:17.789Z,26.40
2022-08-10T19:46:31.494Z,26.30
2022-08-10T19:51:48.885Z,26.20
2022-08-10T19:57:01.789Z,26.10
2022-08-10T20:02:07.229Z,26.00
2022-08-10T20:07:18.919Z,26.00
2022-08-10T20:12:34.084Z,25.80
2022-08-10T20:17:51.370Z,25.80
2022-08-10T20:23:08.913Z,25.70
2022-08-10T20:28:20.488Z,25.60
2022-08-10T20:33:28.914Z,25.60
2022-08-10T20:38:43.517Z,25.50
2022-08-10T20:44:01.326Z,25.50
2022-08-10T20:49:20.807Z,25.30
2022-08-10T20:54:32.582Z,25.30
2022-08-10T21:00:03.972Z,25.20
2022-08-10T21:05:19.523Z,25.20
2022-08-10T21:10:39.930Z,25.10
2022-08-10T21:15:55.419Z,25.10
2022-08-10T21:21:16.576Z,25.00
2022-08-10T21:26:30.325Z,24.90
2022-08-10T21:31:55.244Z,24.90
2022-08-10T21:37:02.689Z,24.80
2022-08-10T21:42:46.597Z,24.80
2022-08-10T21:48:19.012Z,24.70
2022-08-10T21:53:46.320Z,24.60
2022-08-10T21:59:15.581Z,24.60
2022-08-10T22:04:38.121Z,24.50
2022-08-10T22:10:04.993Z,24.50
2022-08-10T22:16:03.948Z,24.40
2022-08-10T22:21:27.087Z,24.40
2022-08-10T22:27:46.185Z,24.40
2022-08-10T22:33:09.780Z,24.40
2022-08-10T22:38:42.213Z,24.30
2022-08-10T22:44:03.455Z,24.30
2022-08-10T22:49:08.066Z,24.20
2022-08-10T22:54:33.887Z,24.20
2022-08-10T22:59:37.618Z,24.10
2022-08-10T23:04:49.615Z,24.10
2022-08-10T23:10:02.518Z,24.00
2022-08-10T23:15:33.062Z,23.90
2022-08-10T23:20:40.623Z,23.90
2022-08-10T23:25:56.391Z,23.90
2022-08-10T23:31:02.345Z,23.80
2022-08-10T23:36:33.547Z,23.80
2022-08-10T23:41:33.578Z,23.80
2022-08-10T23:46:40.049Z,23.70
2022-08-10T23:51:55.682Z,23.70
2022-08-10T23:57:01.924Z,23.60
